sensor_id;sensor_type;location;lat;lon;timestamp;pressure;altitude;pressure_sealevel;temperature;humidity
72118;BME280;59992;47.490;8.736;2023-05-25T00:01:04;96748.08;;;11.77;73.69
72118;BME280;59992;47.490;8.736;2023-05-25T00:03:55;96748.00;;;11.76;73.93
72118;BME280;59992;47.490;8.736;2023-05-25T00:06:48;96743.71;;;11.74;74.13
72118;BME280;59992;47.490;8.736;2023-05-25T00:09:38;96745.75;;;11.73;74.44
72118;BME280;59992;47.490;8.736;2023-05-25T00:16:13;96743.93;;;11.72;74.04
72118;BME280;59992;47.490;8.736;2023-05-25T00:19:03;96741.79;;;11.71;73.77
72118;BME280;59992;47.490;8.736;2023-05-25T00:21:54;96743.08;;;11.71;73.50
72118;BME280;59992;47.490;8.736;2023-05-25T00:24:45;96741.16;;;11.69;73.00
72118;BME280;59992;47.490;8.736;2023-05-25T00:27:35;96740.25;;;11.69;73.13
72118;BME280;59992;47.490;8.736;2023-05-25T00:30:25;96740.55;;;11.68;72.34
72118;BME280;59992;47.490;8.736;2023-05-25T00:33:15;96736.46;;;11.68;72.59
72118;BME280;59992;47.490;8.736;2023-05-25T00:36:06;96736.70;;;11.70;72.27
72118;BME280;59992;47.490;8.736;2023-05-25T00:38:57;96732.36;;;11.68;70.62
72118;BME280;59992;47.490;8.736;2023-05-25T00:41:48;96735.06;;;11.67;70.70
72118;BME280;59992;47.490;8.736;2023-05-25T00:44:38;96729.52;;;11.66;69.52
72118;BME280;59992;47.490;8.736;2023-05-25T00:47:28;96723.11;;;11.65;68.99
72118;BME280;59992;47.490;8.736;2023-05-25T00:50:31;96723.85;;;11.64;69.83
72118;BME280;59992;47.490;8.736;2023-05-25T00:53:25;96723.47;;;11.63;69.97
72118;BME280;59992;47.490;8.736;2023-05-25T00:56:21;96720.48;;;11.61;69.69
72118;BME280;59992;47.490;8.736;2023-05-25T00:59:16;96719.69;;;11.58;69.83
72118;BME280;59992;47.490;8.736;2023-05-25T01:02:08;96718.77;;;11.57;69.84
72118;BME280;59992;47.490;8.736;2023-05-25T01:05:00;96720.65;;;11.56;70.35
72118;BME280;59992;47.490;8.736;2023-05-25T01:07:53;96718.45;;;11.55;70.93
72118;BME280;59992;47.490;8.736;2023-05-25T01:10:46;96718.49;;;11.52;69.51
72118;BME280;59992;47.490;8.736;2023-05-25T01:13:38;96715.88;;;11.50;70.18
72118;BME280;59992;47.490;8.736;2023-05-25T01:16:30;96715.08;;;11.46;70.49
72118;BME280;59992;47.490;8.736;2023-05-25T01:19:20;96710.84;;;11.41;70.87
72118;BME280;59992;47.490;8.736;2023-05-25T01:22:14;96709.16;;;11.34;71.61
72118;BME280;59992;47.490;8.736;2023-05-25T01:25:11;96706.33;;;11.25;72.83
72118;BME280;59992;47.490;8.736;2023-05-25T01:28:04;96704.77;;;11.16;72.37
72118;BME280;59992;47.490;8.736;2023-05-25T01:30:56;96708.55;;;11.04;75.24
72118;BME280;59992;47.490;8.736;2023-05-25T01:33:49;96706.77;;;10.90;74.70
72118;BME280;59992;47.490;8.736;2023-05-25T01:36:40;96710.40;;;10.80;75.16
72118;BME280;59992;47.490;8.736;2023-05-25T01:39:31;96709.60;;;10.71;75.10
72118;BME280;59992;47.490;8.736;2023-05-25T01:42:21;96710.52;;;10.62;76.05
72118;BME280;59992;47.490;8.736;2023-05-25T01:45:12;96712.83;;;10.54;76.97
72118;BME280;59992;47.490;8.736;2023-05-25T01:48:07;96709.75;;;10.46;76.39
72118;BME280;59992;47.490;8.736;2023-05-25T01:51:02;96709.38;;;10.41;76.82
72118;BME280;59992;47.490;8.736;2023-05-25T01:54:19;96709.87;;;10.35;76.05
72118;BME280;59992;47.490;8.736;2023-05-25T01:57:14;96712.60;;;10.30;76.90
72118;BME280;59992;47.490;8.736;2023-05-25T02:00:06;96716.42;;;10.28;77.64
72118;BME280;59992;47.490;8.736;2023-05-25T02:02:57;96727.86;;;10.29;76.61
72118;BME280;59992;47.490;8.736;2023-05-25T02:05:47;96719.98;;;10.29;76.79
72118;BME280;59992;47.490;8.736;2023-05-25T02:08:38;96724.09;;;10.29;76.11
72118;BME280;59992;47.490;8.736;2023-05-25T02:11:27;96727.18;;;10.29;77.17
72118;BME280;59992;47.490;8.736;2023-05-25T02:14:18;96725.06;;;10.29;77.45
72118;BME280;59992;47.490;8.736;2023-05-25T02:17:08;96724.74;;;10.28;77.16
72118;BME280;59992;47.490;8.736;2023-05-25T02:20:00;96719.35;;;10.27;77.42
72118;BME280;59992;47.490;8.736;2023-05-25T02:22:50;96713.45;;;10.27;77.31
72118;BME280;59992;47.490;8.736;2023-05-25T02:25:40;96711.25;;;10.27;77.04
72118;BME280;59992;47.490;8.736;2023-05-25T02:28:31;96704.52;;;10.23;78.66
72118;BME280;59992;47.490;8.736;2023-05-25T02:31:20;96708.70;;;10.23;78.51
72118;BME280;59992;47.490;8.736;2023-05-25T02:34:10;96704.40;;;10.20;78.11
72118;BME280;59992;47.490;8.736;2023-05-25T02:37:01;96708.70;;;10.19;78.55
72118;BME280;59992;47.490;8.736;2023-05-25T02:39:51;96706.30;;;10.15;78.93
72118;BME280;59992;47.490;8.736;2023-05-25T02:42:42;96708.48;;;10.15;78.83
72118;BME280;59992;47.490;8.736;2023-05-25T02:45:31;96708.77;;;10.14;78.98
72118;BME280;59992;47.490;8.736;2023-05-25T02:48:21;96710.35;;;10.13;79.74
72118;BME280;59992;47.490;8.736;2023-05-25T02:51:11;96704.19;;;10.08;79.24
72118;BME280;59992;47.490;8.736;2023-05-25T02:54:01;96707.83;;;10.12;79.61
72118;BME280;59992;47.490;8.736;2023-05-25T02:56:51;96704.96;;;10.12;79.26
72118;BME280;59992;47.490;8.736;2023-05-25T02:59:41;96705.28;;;10.13;80.57
72118;BME280;59992;47.490;8.736;2023-05-25T03:02:32;96704.83;;;10.14;79.68
72118;BME280;59992;47.490;8.736;2023-05-25T03:05:22;96701.60;;;10.15;79.78
72118;BME280;59992;47.490;8.736;2023-05-25T03:08:12;96697.69;;;10.16;78.56
72118;BME280;59992;47.490;8.736;2023-05-25T03:11:02;96697.51;;;10.15;79.26
72118;BME280;59992;47.490;8.736;2023-05-25T03:13:53;96704.77;;;10.11;78.91
72118;BME280;59992;47.490;8.736;2023-05-25T03:16:43;96712.70;;;10.10;78.75
72118;BME280;59992;47.490;8.736;2023-05-25T03:19:33;96711.27;;;10.10;78.88
72118;BME280;59992;47.490;8.736;2023-05-25T03:22:23;96710.45;;;10.11;79.16
72118;BME280;59992;47.490;8.736;2023-05-25T03:25:13;96713.17;;;10.11;79.19
72118;BME280;59992;47.490;8.736;2023-05-25T03:28:03;96718.58;;;10.12;78.98
72118;BME280;59992;47.490;8.736;2023-05-25T03:30:53;96719.27;;;10.12;79.54
72118;BME280;59992;47.490;8.736;2023-05-25T03:33:44;96718.73;;;10.12;79.97
72118;BME280;59992;47.490;8.736;2023-05-25T03:36:34;96717.54;;;10.13;79.05
72118;BME280;59992;47.490;8.736;2023-05-25T03:39:25;96718.02;;;10.15;78.97
72118;BME280;59992;47.490;8.736;2023-05-25T03:42:14;96717.14;;;10.17;78.80
72118;BME280;59992;47.490;8.736;2023-05-25T03:45:06;96721.40;;;10.18;78.85
72118;BME280;59992;47.490;8.736;2023-05-25T03:47:56;96720.70;;;10.21;79.41
72118;BME280;59992;47.490;8.736;2023-05-25T03:50:46;96724.52;;;10.24;79.22
72118;BME280;59992;47.490;8.736;2023-05-25T03:53:36;96730.93;;;10.26;79.38
72118;BME280;59992;47.490;8.736;2023-05-25T03:56:26;96706.80;;;10.19;79.97
72118;BME280;59992;47.490;8.736;2023-05-25T03:59:16;96726.95;;;10.33;79.18
72118;BME280;59992;47.490;8.736;2023-05-25T04:02:06;96724.65;;;10.36;78.76
72118;BME280;59992;47.490;8.736;2023-05-25T04:04:56;96718.23;;;10.32;79.31
72118;BME280;59992;47.490;8.736;2023-05-25T04:07:47;96728.02;;;10.43;79.56
72118;BME280;59992;47.490;8.736;2023-05-25T04:10:37;96734.23;;;10.47;78.78
72118;BME280;59992;47.490;8.736;2023-05-25T04:13:27;96734.18;;;10.49;78.67
72118;BME280;59992;47.490;8.736;2023-05-25T04:16:18;96734.31;;;10.52;78.97
72118;BME280;59992;47.490;8.736;2023-05-25T04:19:09;96729.98;;;10.56;78.58
72118;BME280;59992;47.490;8.736;2023-05-25T04:21:59;96736.33;;;10.61;79.14
72118;BME280;59992;47.490;8.736;2023-05-25T04:24:49;96730.17;;;10.64;78.87
72118;BME280;59992;47.490;8.736;2023-05-25T04:27:39;96733.11;;;10.68;78.89
72118;BME280;59992;47.490;8.736;2023-05-25T04:30:29;96730.07;;;10.72;78.85
72118;BME280;59992;47.490;8.736;2023-05-25T04:33:20;96731.77;;;10.75;77.83
72118;BME280;59992;47.490;8.736;2023-05-25T04:36:10;96727.91;;;10.80;78.00
72118;BME280;59992;47.490;8.736;2023-05-25T04:39:02;96731.23;;;10.84;77.64
72118;BME280;59992;47.490;8.736;2023-05-25T04:41:52;96735.19;;;10.91;77.39
72118;BME280;59992;47.490;8.736;2023-05-25T04:44:44;96728.26;;;10.94;77.16
72118;BME280;59992;47.490;8.736;2023-05-25T04:47:34;96731.19;;;10.98;76.93
72118;BME280;59992;47.490;8.736;2023-05-25T04:50:25;96728.27;;;11.00;76.68
72118;BME280;59992;47.490;8.736;2023-05-25T04:53:15;96727.86;;;11.04;76.78
72118;BME280;59992;47.490;8.736;2023-05-25T04:56:05;96730.22;;;11.10;76.89
72118;BME280;59992;47.490;8.736;2023-05-25T04:58:55;96732.66;;;11.16;77.07
72118;BME280;59992;47.490;8.736;2023-05-25T05:01:45;96732.85;;;11.19;76.25
72118;BME280;59992;47.490;8.736;2023-05-25T05:04:36;96734.63;;;11.22;76.06
72118;BME280;59992;47.490;8.736;2023-05-25T05:07:27;96743.81;;;11.28;76.81
72118;BME280;59992;47.490;8.736;2023-05-25T05:10:18;96739.48;;;11.34;77.00
72118;BME280;59992;47.490;8.736;2023-05-25T05:13:08;96744.21;;;11.41;76.87
72118;BME280;59992;47.490;8.736;2023-05-25T05:15:59;96747.55;;;11.47;76.85
72118;BME280;59992;47.490;8.736;2023-05-25T05:18:49;96760.60;;;11.54;76.73
72118;BME280;59992;47.490;8.736;2023-05-25T05:21:51;96762.50;;;11.61;75.57
72118;BME280;59992;47.490;8.736;2023-05-25T05:24:41;96753.33;;;11.65;73.92
72118;BME280;59992;47.490;8.736;2023-05-25T05:27:31;96763.02;;;11.69;74.40
72118;BME280;59992;47.490;8.736;2023-05-25T05:30:21;96766.11;;;11.68;73.83
72118;BME280;59992;47.490;8.736;2023-05-25T05:33:11;96772.98;;;11.71;73.79
72118;BME280;59992;47.490;8.736;2023-05-25T05:36:01;96778.00;;;11.72;73.15
72118;BME280;59992;47.490;8.736;2023-05-25T05:38:52;96772.65;;;11.69;72.10
72118;BME280;59992;47.490;8.736;2023-05-25T05:41:47;96771.25;;;11.72;72.91
72118;BME280;59992;47.490;8.736;2023-05-25T05:44:37;96769.55;;;11.69;71.84
72118;BME280;59992;47.490;8.736;2023-05-25T05:47:27;96770.02;;;11.71;72.23
72118;BME280;59992;47.490;8.736;2023-05-25T05:50:18;96773.35;;;11.78;72.77
72118;BME280;59992;47.490;8.736;2023-05-25T05:53:08;96775.77;;;11.83;72.15
72118;BME280;59992;47.490;8.736;2023-05-25T05:55:59;96769.55;;;11.90;71.89
72118;BME280;59992;47.490;8.736;2023-05-25T05:58:49;96771.11;;;11.95;71.61
72118;BME280;59992;47.490;8.736;2023-05-25T06:01:41;96777.81;;;12.03;71.52
72118;BME280;59992;47.490;8.736;2023-05-25T06:04:32;96776.08;;;12.11;71.72
72118;BME280;59992;47.490;8.736;2023-05-25T06:07:22;96775.28;;;12.23;71.93
72118;BME280;59992;47.490;8.736;2023-05-25T06:10:14;96777.81;;;12.32;71.40
72118;BME280;59992;47.490;8.736;2023-05-25T06:13:05;96779.02;;;12.41;71.33
72118;BME280;59992;47.490;8.736;2023-05-25T06:15:55;96776.10;;;12.52;71.59
72118;BME280;59992;47.490;8.736;2023-05-25T06:18:45;96779.99;;;12.64;71.30
72118;BME280;59992;47.490;8.736;2023-05-25T06:21:36;96779.10;;;12.76;71.65
72118;BME280;59992;47.490;8.736;2023-05-25T06:24:26;96791.77;;;12.82;70.62
72118;BME280;59992;47.490;8.736;2023-05-25T06:27:16;96794.23;;;12.89;70.59
72118;BME280;59992;47.490;8.736;2023-05-25T06:30:10;96785.59;;;13.00;70.91
72118;BME280;59992;47.490;8.736;2023-05-25T06:33:00;96787.06;;;13.12;70.25
72118;BME280;59992;47.490;8.736;2023-05-25T06:35:50;96788.36;;;13.23;69.95
72118;BME280;59992;47.490;8.736;2023-05-25T06:38:44;96791.53;;;13.31;68.64
72118;BME280;59992;47.490;8.736;2023-05-25T06:41:35;96786.95;;;13.42;68.77
72118;BME280;59992;47.490;8.736;2023-05-25T06:44:25;96798.29;;;13.57;68.42
72118;BME280;59992;47.490;8.736;2023-05-25T06:47:16;96796.41;;;13.64;67.94
72118;BME280;59992;47.490;8.736;2023-05-25T06:50:08;96801.88;;;13.78;68.72
72118;BME280;59992;47.490;8.736;2023-05-25T06:52:58;96806.73;;;13.87;67.84
72118;BME280;59992;47.490;8.736;2023-05-25T06:55:48;96805.28;;;13.91;66.64
72118;BME280;59992;47.490;8.736;2023-05-25T06:58:38;96807.73;;;13.89;66.04
72118;BME280;59992;47.490;8.736;2023-05-25T07:01:28;96806.66;;;13.90;67.02
72118;BME280;59992;47.490;8.736;2023-05-25T07:04:19;96810.95;;;13.95;67.04
72118;BME280;59992;47.490;8.736;2023-05-25T07:07:10;96817.89;;;13.99;67.11
72118;BME280;59992;47.490;8.736;2023-05-25T07:10:03;96821.62;;;13.99;67.23
72118;BME280;59992;47.490;8.736;2023-05-25T07:12:54;96810.40;;;13.96;66.75
72118;BME280;59992;47.490;8.736;2023-05-25T07:15:45;96815.61;;;14.03;67.09
72118;BME280;59992;47.490;8.736;2023-05-25T07:18:39;96820.04;;;14.06;67.44
72118;BME280;59992;47.490;8.736;2023-05-25T07:21:31;96825.00;;;14.08;67.32
72118;BME280;59992;47.490;8.736;2023-05-25T07:24:21;96824.86;;;14.09;66.98
72118;BME280;59992;47.490;8.736;2023-05-25T07:27:12;96826.89;;;14.05;66.87
72118;BME280;59992;47.490;8.736;2023-05-25T07:30:03;96835.95;;;14.04;66.93
72118;BME280;59992;47.490;8.736;2023-05-25T07:32:56;96837.70;;;14.02;67.60
72118;BME280;59992;47.490;8.736;2023-05-25T07:35:47;96840.60;;;14.07;67.58
72118;BME280;59992;47.490;8.736;2023-05-25T07:38:37;96841.91;;;14.08;67.37
72118;BME280;59992;47.490;8.736;2023-05-25T07:41:28;96843.14;;;14.11;66.87
72118;BME280;59992;47.490;8.736;2023-05-25T07:44:18;96840.56;;;14.15;67.18
72118;BME280;59992;47.490;8.736;2023-05-25T07:47:09;96841.48;;;14.18;67.33
72118;BME280;59992;47.490;8.736;2023-05-25T07:50:00;96841.88;;;14.24;67.44
72118;BME280;59992;47.490;8.736;2023-05-25T07:52:51;96842.79;;;14.34;67.56
72118;BME280;59992;47.490;8.736;2023-05-25T07:55:42;96847.23;;;14.43;67.01
72118;BME280;59992;47.490;8.736;2023-05-25T07:58:32;96849.61;;;14.51;67.06
72118;BME280;59992;47.490;8.736;2023-05-25T08:01:22;96849.61;;;14.56;66.58
72118;BME280;59992;47.490;8.736;2023-05-25T08:04:13;96848.19;;;14.65;66.73
72118;BME280;59992;47.490;8.736;2023-05-25T08:07:03;96846.99;;;14.82;67.36
72118;BME280;59992;47.490;8.736;2023-05-25T08:09:54;96848.91;;;14.98;66.90
72118;BME280;59992;47.490;8.736;2023-05-25T08:12:45;96851.88;;;15.15;66.04
72118;BME280;59992;47.490;8.736;2023-05-25T08:15:35;96855.15;;;15.28;66.00
72118;BME280;59992;47.490;8.736;2023-05-25T08:18:26;96852.70;;;15.34;65.69
72118;BME280;59992;47.490;8.736;2023-05-25T08:21:16;96857.08;;;15.45;65.60
72118;BME280;59992;47.490;8.736;2023-05-25T08:24:09;96854.16;;;15.57;66.04
72118;BME280;59992;47.490;8.736;2023-05-25T08:26:59;96860.70;;;15.63;64.03
72118;BME280;59992;47.490;8.736;2023-05-25T08:29:50;96860.78;;;15.59;64.56
72118;BME280;59992;47.490;8.736;2023-05-25T08:32:40;96864.29;;;15.64;64.40
72118;BME280;59992;47.490;8.736;2023-05-25T08:35:31;96863.82;;;15.73;64.28
72118;BME280;59992;47.490;8.736;2023-05-25T08:38:22;96866.71;;;15.78;63.19
72118;BME280;59992;47.490;8.736;2023-05-25T08:41:14;96869.52;;;15.80;62.12
72118;BME280;59992;47.490;8.736;2023-05-25T08:44:04;96870.44;;;15.83;62.50
72118;BME280;59992;47.490;8.736;2023-05-25T08:46:57;96873.17;;;15.87;62.86
72118;BME280;59992;47.490;8.736;2023-05-25T08:49:50;96876.52;;;15.93;63.09
72118;BME280;59992;47.490;8.736;2023-05-25T08:52:45;96881.91;;;16.00;63.24
72118;BME280;59992;47.490;8.736;2023-05-25T08:55:37;96887.64;;;16.05;62.74
72118;BME280;59992;47.490;8.736;2023-05-25T08:58:31;96894.66;;;16.07;62.49
72118;BME280;59992;47.490;8.736;2023-05-25T09:01:23;96897.02;;;16.09;62.87
72118;BME280;59992;47.490;8.736;2023-05-25T09:04:16;96903.36;;;16.09;61.84
72118;BME280;59992;47.490;8.736;2023-05-25T09:07:07;96903.21;;;16.10;62.16
72118;BME280;59992;47.490;8.736;2023-05-25T09:09:58;96905.55;;;16.17;62.84
72118;BME280;59992;47.490;8.736;2023-05-25T09:12:54;96906.52;;;16.24;63.32
72118;BME280;59992;47.490;8.736;2023-05-25T09:15:47;96906.55;;;16.34;62.72
72118;BME280;59992;47.490;8.736;2023-05-25T09:18:37;96908.35;;;16.44;62.81
72118;BME280;59992;47.490;8.736;2023-05-25T09:21:28;96905.13;;;16.53;62.65
72118;BME280;59992;47.490;8.736;2023-05-25T09:24:19;96907.98;;;16.63;62.19
72118;BME280;59992;47.490;8.736;2023-05-25T09:27:11;96911.95;;;16.65;61.15
72118;BME280;59992;47.490;8.736;2023-05-25T09:30:06;96914.22;;;16.69;60.56
72118;BME280;59992;47.490;8.736;2023-05-25T09:33:09;96925.89;;;16.78;60.69
72118;BME280;59992;47.490;8.736;2023-05-25T09:36:00;96927.27;;;16.87;60.92
72118;BME280;59992;47.490;8.736;2023-05-25T09:38:52;96930.73;;;16.97;60.76
72118;BME280;59992;47.490;8.736;2023-05-25T09:41:43;96936.88;;;17.05;60.68
72118;BME280;59992;47.490;8.736;2023-05-25T09:44:35;96941.70;;;17.07;60.18
72118;BME280;59992;47.490;8.736;2023-05-25T09:47:29;96949.12;;;17.08;59.52
72118;BME280;59992;47.490;8.736;2023-05-25T09:50:21;96948.70;;;17.13;59.93
72118;BME280;59992;47.490;8.736;2023-05-25T09:53:15;96947.90;;;17.19;59.87
72118;BME280;59992;47.490;8.736;2023-05-25T09:56:06;96947.67;;;17.27;59.58
72118;BME280;59992;47.490;8.736;2023-05-25T09:58:56;96946.52;;;17.39;59.93
72118;BME280;59992;47.490;8.736;2023-05-25T10:01:51;96949.63;;;17.47;59.10
72118;BME280;59992;47.490;8.736;2023-05-25T10:04:41;96955.39;;;17.55;59.17
72118;BME280;59992;47.490;8.736;2023-05-25T10:07:32;96956.02;;;17.61;58.34
72118;BME280;59992;47.490;8.736;2023-05-25T10:10:24;96951.54;;;17.67;57.90
72118;BME280;59992;47.490;8.736;2023-05-25T10:13:19;96955.26;;;17.87;58.28
72118;BME280;59992;47.490;8.736;2023-05-25T10:16:11;96960.83;;;18.06;57.66
72118;BME280;59992;47.490;8.736;2023-05-25T10:19:09;96962.32;;;18.25;57.28
72118;BME280;59992;47.490;8.736;2023-05-25T10:22:18;96959.50;;;18.45;57.19
72118;BME280;59992;47.490;8.736;2023-05-25T10:25:17;96969.66;;;18.56;55.56
72118;BME280;59992;47.490;8.736;2023-05-25T10:28:17;96966.05;;;18.64;55.43
72118;BME280;59992;47.490;8.736;2023-05-25T10:31:09;96964.90;;;18.74;54.79
72118;BME280;59992;47.490;8.736;2023-05-25T10:34:00;96972.08;;;18.78;54.74
72118;BME280;59992;47.490;8.736;2023-05-25T10:36:51;96971.66;;;18.81;54.86
72118;BME280;59992;47.490;8.736;2023-05-25T10:39:43;96964.00;;;18.80;54.55
72118;BME280;59992;47.490;8.736;2023-05-25T10:42:35;96962.39;;;18.85;54.96
72118;BME280;59992;47.490;8.736;2023-05-25T10:45:27;96965.91;;;18.98;55.27
72118;BME280;59992;47.490;8.736;2023-05-25T10:48:18;96964.99;;;19.03;55.44
72118;BME280;59992;47.490;8.736;2023-05-25T10:51:09;96966.98;;;19.15;55.83
72118;BME280;59992;47.490;8.736;2023-05-25T10:54:01;96974.42;;;19.32;55.56
72118;BME280;59992;47.490;8.736;2023-05-25T10:57:10;96985.36;;;19.51;55.65
72118;BME280;59992;47.490;8.736;2023-05-25T11:00:08;96983.34;;;19.67;54.05
72118;BME280;59992;47.490;8.736;2023-05-25T11:03:16;96977.33;;;19.77;55.10
72118;BME280;59992;47.490;8.736;2023-05-25T11:06:09;96976.54;;;19.83;54.98
72118;BME280;59992;47.490;8.736;2023-05-25T11:09:00;96987.19;;;19.99;55.02
72118;BME280;59992;47.490;8.736;2023-05-25T11:12:04;96986.48;;;19.96;53.10
72118;BME280;59992;47.490;8.736;2023-05-25T11:15:12;96988.60;;;20.02;54.09
72118;BME280;59992;47.490;8.736;2023-05-25T11:18:05;96987.09;;;20.10;53.79
72118;BME280;59992;47.490;8.736;2023-05-25T11:21:21;96985.03;;;20.18;52.59
72118;BME280;59992;47.490;8.736;2023-05-25T11:24:14;96982.76;;;20.26;52.22
72118;BME280;59992;47.490;8.736;2023-05-25T11:27:05;96984.35;;;20.38;52.66
72118;BME280;59992;47.490;8.736;2023-05-25T11:29:59;96979.91;;;20.41;52.32
72118;BME280;59992;47.490;8.736;2023-05-25T11:32:51;96979.16;;;20.28;51.73
72118;BME280;59992;47.490;8.736;2023-05-25T11:35:49;96979.11;;;20.27;52.45
72118;BME280;59992;47.490;8.736;2023-05-25T11:38:43;96980.77;;;20.32;53.17
72118;BME280;59992;47.490;8.736;2023-05-25T11:41:42;96981.70;;;20.32;52.74
72118;BME280;59992;47.490;8.736;2023-05-25T11:44:38;96978.93;;;20.36;52.52
72118;BME280;59992;47.490;8.736;2023-05-25T11:47:29;96983.23;;;20.36;52.52
72118;BME280;59992;47.490;8.736;2023-05-25T11:50:19;96980.23;;;20.36;53.33
72118;BME280;59992;47.490;8.736;2023-05-25T11:53:09;96981.42;;;20.47;53.49
72118;BME280;59992;47.490;8.736;2023-05-25T11:55:59;96981.86;;;20.59;53.08
72118;BME280;59992;47.490;8.736;2023-05-25T11:58:50;96977.59;;;20.62;53.53
72118;BME280;59992;47.490;8.736;2023-05-25T12:01:41;96974.23;;;20.68;53.07
72118;BME280;59992;47.490;8.736;2023-05-25T12:04:32;96977.15;;;20.68;52.21
72118;BME280;59992;47.490;8.736;2023-05-25T12:07:23;96977.30;;;20.76;52.73
72118;BME280;59992;47.490;8.736;2023-05-25T12:10:14;96970.09;;;20.82;52.11
72118;BME280;59992;47.490;8.736;2023-05-25T12:13:05;96971.66;;;20.99;53.05
72118;BME280;59992;47.490;8.736;2023-05-25T12:15:58;96973.59;;;21.07;52.46
72118;BME280;59992;47.490;8.736;2023-05-25T12:18:49;96964.71;;;21.04;51.45
72118;BME280;59992;47.490;8.736;2023-05-25T12:21:40;96964.02;;;20.92;52.00
72118;BME280;59992;47.490;8.736;2023-05-25T12:24:30;96964.03;;;20.89;51.74
72118;BME280;59992;47.490;8.736;2023-05-25T12:27:22;96967.09;;;20.75;52.20
72118;BME280;59992;47.490;8.736;2023-05-25T12:30:13;96966.08;;;20.67;52.36
72118;BME280;59992;47.490;8.736;2023-05-25T12:33:03;96967.31;;;20.76;53.37
72118;BME280;59992;47.490;8.736;2023-05-25T12:35:53;96963.20;;;20.80;52.93
72118;BME280;59992;47.490;8.736;2023-05-25T12:38:58;96960.44;;;20.83;52.59
72118;BME280;59992;47.490;8.736;2023-05-25T12:41:52;96965.08;;;20.82;52.42
72118;BME280;59992;47.490;8.736;2023-05-25T12:44:43;96966.22;;;20.72;52.41
72118;BME280;59992;47.490;8.736;2023-05-25T12:47:34;96973.24;;;20.71;52.49
72118;BME280;59992;47.490;8.736;2023-05-25T12:50:24;96975.55;;;20.67;52.62
72118;BME280;59992;47.490;8.736;2023-05-25T12:53:14;96969.44;;;20.73;52.36
72118;BME280;59992;47.490;8.736;2023-05-25T12:56:05;96966.66;;;20.73;52.33
72118;BME280;59992;47.490;8.736;2023-05-25T13:01:58;96972.61;;;20.87;52.66
72118;BME280;59992;47.490;8.736;2023-05-25T13:04:48;96978.39;;;20.76;52.52
72118;BME280;59992;47.490;8.736;2023-05-25T13:07:38;96976.55;;;20.79;53.19
72118;BME280;59992;47.490;8.736;2023-05-25T13:10:29;96974.56;;;20.86;52.94
72118;BME280;59992;47.490;8.736;2023-05-25T13:13:20;96967.91;;;21.03;52.96
72118;BME280;59992;47.490;8.736;2023-05-25T13:16:11;96968.46;;;21.09;51.98
72118;BME280;59992;47.490;8.736;2023-05-25T13:19:01;96974.81;;;21.11;51.77
72118;BME280;59992;47.490;8.736;2023-05-25T13:21:51;96971.47;;;21.15;51.57
72118;BME280;59992;47.490;8.736;2023-05-25T13:24:43;96974.88;;;21.18;52.36
72118;BME280;59992;47.490;8.736;2023-05-25T13:27:33;96978.45;;;21.21;52.43
72118;BME280;59992;47.490;8.736;2023-05-25T13:30:24;96975.34;;;21.29;51.82
72118;BME280;59992;47.490;8.736;2023-05-25T13:33:15;96971.86;;;21.32;51.15
72118;BME280;59992;47.490;8.736;2023-05-25T13:36:05;96968.98;;;21.40;51.44
72118;BME280;59992;47.490;8.736;2023-05-25T13:38:57;96969.51;;;21.48;51.74
72118;BME280;59992;47.490;8.736;2023-05-25T13:41:47;96973.13;;;21.51;50.60
72118;BME280;59992;47.490;8.736;2023-05-25T13:44:38;96974.44;;;21.54;51.44
72118;BME280;59992;47.490;8.736;2023-05-25T13:47:27;96971.36;;;21.51;51.00
72118;BME280;59992;47.490;8.736;2023-05-25T13:50:18;96972.73;;;21.54;51.15
72118;BME280;59992;47.490;8.736;2023-05-25T13:53:08;96972.04;;;21.58;51.09
72118;BME280;59992;47.490;8.736;2023-05-25T13:55:58;96972.52;;;21.44;51.99
72118;BME280;59992;47.490;8.736;2023-05-25T13:58:49;96980.42;;;21.55;51.76
72118;BME280;59992;47.490;8.736;2023-05-25T14:01:39;96979.05;;;21.62;50.55
72118;BME280;59992;47.490;8.736;2023-05-25T14:04:30;96979.27;;;21.62;50.36
72118;BME280;59992;47.490;8.736;2023-05-25T14:07:20;96971.92;;;21.60;51.17
72118;BME280;59992;47.490;8.736;2023-05-25T14:10:12;96979.77;;;21.61;50.90
72118;BME280;59992;47.490;8.736;2023-05-25T14:13:02;96979.34;;;21.56;50.79
72118;BME280;59992;47.490;8.736;2023-05-25T14:15:53;96978.04;;;21.49;50.68
72118;BME280;59992;47.490;8.736;2023-05-25T14:18:43;96978.14;;;21.44;51.09
72118;BME280;59992;47.490;8.736;2023-05-25T14:21:33;96978.63;;;21.46;51.16
72118;BME280;59992;47.490;8.736;2023-05-25T14:24:23;96978.61;;;21.50;51.06
72118;BME280;59992;47.490;8.736;2023-05-25T14:27:13;96978.23;;;21.57;50.87
72118;BME280;59992;47.490;8.736;2023-05-25T14:30:10;96979.99;;;21.64;51.05
72118;BME280;59992;47.490;8.736;2023-05-25T14:33:00;96976.13;;;21.57;50.24
72118;BME280;59992;47.490;8.736;2023-05-25T14:35:50;96975.55;;;21.52;50.75
72118;BME280;59992;47.490;8.736;2023-05-25T14:38:41;96975.19;;;21.48;50.80
72118;BME280;59992;47.490;8.736;2023-05-25T14:41:31;96968.06;;;21.37;50.17
72118;BME280;59992;47.490;8.736;2023-05-25T14:44:21;96973.04;;;21.35;51.05
72118;BME280;59992;47.490;8.736;2023-05-25T14:47:12;96975.69;;;21.34;51.26
72118;BME280;59992;47.490;8.736;2023-05-25T14:50:03;96979.72;;;21.26;51.24
72118;BME280;59992;47.490;8.736;2023-05-25T14:52:53;96976.64;;;21.23;51.29
72118;BME280;59992;47.490;8.736;2023-05-25T14:55:43;96977.40;;;21.16;51.65
72118;BME280;59992;47.490;8.736;2023-05-25T14:58:34;96980.76;;;21.14;51.78
72118;BME280;59992;47.490;8.736;2023-05-25T15:01:24;96982.48;;;21.13;51.72
72118;BME280;59992;47.490;8.736;2023-05-25T15:04:17;96986.95;;;21.12;51.53
72118;BME280;59992;47.490;8.736;2023-05-25T15:07:07;96993.67;;;21.08;52.06
72118;BME280;59992;47.490;8.736;2023-05-25T15:09:57;96995.27;;;21.09;52.15
72118;BME280;59992;47.490;8.736;2023-05-25T15:12:48;96997.62;;;21.07;51.95
72118;BME280;59992;47.490;8.736;2023-05-25T15:15:38;96994.83;;;21.05;52.25